createdAt,value
2023-03-02T00:00:51.264Z,4.85
2023-03-02T00:03:17.746Z,5.38
2023-03-02T00:05:44.269Z,4.40
2023-03-02T00:08:10.747Z,4.90
2023-03-02T00:10:37.287Z,5.55
2023-03-02T00:13:03.766Z,4.90
2023-03-02T00:15:30.313Z,5.38
2023-03-02T00:17:56.853Z,5.28
2023-03-02T00:20:23.352Z,4.75
2023-03-02T00:22:49.864Z,5.25
2023-03-02T00:25:16.362Z,5.18
2023-03-02T00:27:42.911Z,4.95
2023-03-02T00:30:09.400Z,5.25
2023-03-02T00:32:35.966Z,5.55
2023-03-02T00:35:02.494Z,5.07
2023-03-02T00:37:28.990Z,4.85
2023-03-02T00:39:55.503Z,5.45
2023-03-02T00:42:22.013Z,5.80
2023-03-02T00:44:48.517Z,5.43
2023-03-02T00:47:14.980Z,5.78
2023-03-02T00:49:41.442Z,5.78
2023-03-02T00:52:07.906Z,5.38
2023-03-02T00:54:34.379Z,4.93
2023-03-02T00:57:00.876Z,5.20
2023-03-02T00:59:27.353Z,5.30
2023-03-02T01:01:53.919Z,5.00
2023-03-02T01:04:20.422Z,6.13
2023-03-02T01:06:46.894Z,5.25
2023-03-02T01:09:13.392Z,5.22
2023-03-02T01:11:39.907Z,6.00
2023-03-02T01:14:06.420Z,5.45
2023-03-02T01:16:33.193Z,6.10
2023-03-02T01:18:59.884Z,5.47
2023-03-02T01:21:26.391Z,5.38
2023-03-02T01:23:52.931Z,5.75
2023-03-02T01:26:19.460Z,5.45
2023-03-02T01:28:45.955Z,5.43
2023-03-02T01:31:12.455Z,5.57
2023-03-02T01:33:38.935Z,4.88
2023-03-02T01:36:05.414Z,5.70
2023-03-02T01:38:31.885Z,6.45
2023-03-02T01:40:58.358Z,5.53
2023-03-02T01:43:24.871Z,5.30
2023-03-02T01:45:51.349Z,5.57
2023-03-02T01:48:17.861Z,6.55
2023-03-02T01:50:44.340Z,5.85
2023-03-02T01:53:10.842Z,5.57
2023-03-02T01:55:37.337Z,5.00
2023-03-02T01:58:03.794Z,4.75
2023-03-02T02:00:30.285Z,5.15
2023-03-02T02:02:56.724Z,5.70
2023-03-02T02:05:23.188Z,5.47
2023-03-02T02:07:49.702Z,5.97
2023-03-02T02:10:16.225Z,6.03
2023-03-02T02:12:42.659Z,4.95
2023-03-02T02:15:09.173Z,5.90
2023-03-02T02:17:35.663Z,5.07
2023-03-02T02:20:02.178Z,5.18
2023-03-02T02:22:28.654Z,5.75
2023-03-02T02:24:55.139Z,5.65
2023-03-02T02:27:21.637Z,5.53
2023-03-02T02:29:48.148Z,5.45
2023-03-02T02:32:14.766Z,5.95
2023-03-02T02:34:41.352Z,5.47
2023-03-02T02:37:07.851Z,5.38
2023-03-02T02:39:34.325Z,5.35
2023-03-02T02:42:00.807Z,5.32
2023-03-02T02:44:27.301Z,6.18
2023-03-02T02:46:53.811Z,5.57
2023-03-02T02:49:20.334Z,5.38
2023-03-02T02:51:46.804Z,5.35
2023-03-02T02:54:13.335Z,5.47
2023-03-02T02:56:39.861Z,5.82
2023-03-02T02:59:06.324Z,5.50
2023-03-02T03:01:32.803Z,5.15
2023-03-02T03:03:59.331Z,5.80
2023-03-02T03:06:25.879Z,5.53
2023-03-02T03:08:52.404Z,5.63
2023-03-02T03:11:18.877Z,6.68
2023-03-02T03:13:45.448Z,6.30
2023-03-02T03:16:11.946Z,6.30
2023-03-02T03:18:38.486Z,5.43
2023-03-02T03:21:04.957Z,5.47
2023-03-02T03:23:31.469Z,6.25
2023-03-02T03:25:57.965Z,6.07
2023-03-02T03:28:24.466Z,5.72
2023-03-02T03:30:50.974Z,5.32
2023-03-02T03:33:17.601Z,5.45
2023-03-02T03:35:44.091Z,4.90
2023-03-02T03:38:10.650Z,5.47
2023-03-02T03:40:37.161Z,6.03
2023-03-02T03:43:03.618Z,6.07
2023-03-02T03:45:30.510Z,5.70
2023-03-02T03:47:57.094Z,5.90
2023-03-02T03:50:23.562Z,5.40
2023-03-02T03:52:50.019Z,6.03
2023-03-02T03:55:16.456Z,5.55
2023-03-02T03:57:42.916Z,5.13
2023-03-02T04:00:09.396Z,5.50
2023-03-02T04:02:35.946Z,5.90
2023-03-02T04:05:02.441Z,5.78
2023-03-02T04:07:28.944Z,5.32
2023-03-02T04:09:55.409Z,5.35
2023-03-02T04:12:21.921Z,5.57
2023-03-02T04:14:48.403Z,5.43
2023-03-02T04:17:14.885Z,5.75
2023-03-02T04:19:41.437Z,5.65
2023-03-02T04:22:07.938Z,6.25
2023-03-02T04:24:34.446Z,4.85
2023-03-02T04:27:00.937Z,5.50
2023-03-02T04:29:27.411Z,5.65
2023-03-02T04:31:53.948Z,5.90
2023-03-02T04:34:20.471Z,5.72
2023-03-02T04:36:46.986Z,6.15
2023-03-02T04:39:13.453Z,5.75
2023-03-02T04:41:39.910Z,5.32
2023-03-02T04:44:06.376Z,5.78
2023-03-02T04:46:33.191Z,6.13
2023-03-02T04:48:59.859Z,5.57
2023-03-02T04:51:26.336Z,5.40
2023-03-02T04:53:52.842Z,5.63
2023-03-02T04:56:19.389Z,5.72
2023-03-02T04:58:45.854Z,5.95
2023-03-02T05:01:12.380Z,5.80
2023-03-02T05:03:38.882Z,6.00
2023-03-02T05:06:05.409Z,5.25
2023-03-02T05:08:31.907Z,5.30
2023-03-02T05:10:58.386Z,6.05
2023-03-02T05:13:24.852Z,6.15
2023-03-02T05:15:51.328Z,5.55
2023-03-02T05:18:17.839Z,5.65
2023-03-02T05:20:44.303Z,6.05
2023-03-02T05:23:10.788Z,5.95
2023-03-02T05:25:37.302Z,5.25
2023-03-02T05:28:03.808Z,6.07
2023-03-02T05:30:30.329Z,5.20
2023-03-02T05:32:56.849Z,5.03
2023-03-02T05:35:23.376Z,5.50
2023-03-02T05:37:49.880Z,5.68
2023-03-02T05:40:16.420Z,5.80
2023-03-02T05:42:42.891Z,6.03
2023-03-02T05:45:09.356Z,6.30
2023-03-02T05:47:35.824Z,5.88
2023-03-02T05:50:02.312Z,5.57
2023-03-02T05:52:28.812Z,5.88
2023-03-02T05:54:55.281Z,6.07
2023-03-02T05:57:21.787Z,5.35
2023-03-02T05:59:48.286Z,6.32
2023-03-02T06:02:14.792Z,5.72
2023-03-02T06:04:41.293Z,5.43
2023-03-02T06:07:07.773Z,6.95
2023-03-02T06:09:34.282Z,6.10
2023-03-02T06:12:00.788Z,6.55
2023-03-02T06:14:27.321Z,5.90
2023-03-02T06:16:53.870Z,6.00
2023-03-02T06:19:20.443Z,6.63
2023-03-02T06:21:46.943Z,6.57
2023-03-02T06:24:13.403Z,6.07
2023-03-02T06:26:39.931Z,6.35
2023-03-02T06:29:06.391Z,6.43
2023-03-02T06:31:32.978Z,6.05
2023-03-02T06:33:59.487Z,6.93
2023-03-02T06:36:26.034Z,6.25
2023-03-02T06:38:52.539Z,6.28
2023-03-02T06:41:19.048Z,5.90
2023-03-02T06:43:45.541Z,6.43
2023-03-02T06:46:12.069Z,6.70
2023-03-02T06:48:38.628Z,6.20
2023-03-02T06:51:05.112Z,7.05
2023-03-02T06:53:31.578Z,6.70
2023-03-02T06:55:58.123Z,6.50
2023-03-02T06:58:24.593Z,6.90
2023-03-02T07:00:51.082Z,6.97
2023-03-02T07:03:17.592Z,6.25
2023-03-02T07:05:46.172Z,6.60
2023-03-02T07:08:12.890Z,6.50
2023-03-02T07:10:39.390Z,6.40
2023-03-02T07:13:07.996Z,6.18
2023-03-02T07:15:35.471Z,6.68
2023-03-02T07:18:01.974Z,6.80
2023-03-02T07:20:28.463Z,7.63
2023-03-02T07:22:54.976Z,6.53
2023-03-02T07:25:21.430Z,6.47
2023-03-02T07:27:47.907Z,6.57
2023-03-02T07:30:14.357Z,6.65
2023-03-02T07:32:40.930Z,6.88
2023-03-02T07:35:07.504Z,6.68
2023-03-02T07:37:33.983Z,6.53
2023-03-02T07:40:01.037Z,6.72
2023-03-02T07:42:27.654Z,6.57
2023-03-02T07:44:54.201Z,7.00
2023-03-02T07:47:20.737Z,6.43
2023-03-02T07:49:47.225Z,6.88
2023-03-02T07:52:13.720Z,6.45
2023-03-02T07:54:40.225Z,7.32
2023-03-02T07:57:06.679Z,6.57
2023-03-02T07:59:33.153Z,6.90
2023-03-02T08:01:59.715Z,6.95
2023-03-02T08:04:26.250Z,6.95
2023-03-02T08:06:52.744Z,6.45
2023-03-02T08:09:19.294Z,6.38
2023-03-02T08:11:45.829Z,7.07
2023-03-02T08:14:12.339Z,7.35
2023-03-02T08:16:38.944Z,6.85
2023-03-02T08:19:05.686Z,6.10
2023-03-02T08:21:32.384Z,6.43
2023-03-02T08:23:59.032Z,6.30
2023-03-02T08:26:25.536Z,5.63
2023-03-02T08:28:52.043Z,7.15
2023-03-02T08:31:18.581Z,6.45
2023-03-02T08:33:45.071Z,7.22
2023-03-02T08:36:11.613Z,6.15
2023-03-02T08:38:38.169Z,6.60
2023-03-02T08:41:04.667Z,6.18
2023-03-02T08:43:31.185Z,6.95
2023-03-02T08:45:57.732Z,6.30
2023-03-02T08:48:24.280Z,6.47
2023-03-02T08:50:50.744Z,6.65
2023-03-02T08:53:17.238Z,6.75
2023-03-02T08:55:43.765Z,6.53
2023-03-02T08:58:10.274Z,6.82
2023-03-02T09:00:36.797Z,6.70
2023-03-02T09:03:03.286Z,6.13
2023-03-02T09:05:29.779Z,6.95
2023-03-02T09:07:56.235Z,6.75
2023-03-02T09:10:22.745Z,6.25
2023-03-02T09:12:49.243Z,6.82
2023-03-02T09:15:15.725Z,7.07
2023-03-02T09:17:42.246Z,6.05
2023-03-02T09:20:08.824Z,6.68
2023-03-02T09:22:35.341Z,7.15
2023-03-02T09:25:01.827Z,6.90
2023-03-02T09:27:28.354Z,6.88
2023-03-02T09:29:55.018Z,6.82
2023-03-02T09:32:21.661Z,6.18
2023-03-02T09:34:48.254Z,6.60
2023-03-02T09:37:14.774Z,6.15
2023-03-02T09:39:41.291Z,6.45
2023-03-02T09:42:07.799Z,6.88
2023-03-02T09:44:34.306Z,6.20
2023-03-02T09:47:00.834Z,6.47
2023-03-02T09:49:27.353Z,6.32
2023-03-02T09:51:53.840Z,6.47
2023-03-02T09:54:20.851Z,6.35
2023-03-02T09:56:47.420Z,6.10
2023-03-02T09:59:13.947Z,5.80
2023-03-02T10:01:40.420Z,6.05
2023-03-02T10:04:07.046Z,5.93
2023-03-02T10:06:33.957Z,6.97
2023-03-02T10:09:00.681Z,5.70
2023-03-02T10:11:27.192Z,6.32
2023-03-02T10:13:53.684Z,5.70
2023-03-02T10:16:20.248Z,5.78
2023-03-02T10:18:46.857Z,6.50
2023-03-02T10:21:13.369Z,6.30
2023-03-02T10:23:39.915Z,6.13
2023-03-02T10:26:06.441Z,6.40
2023-03-02T10:28:32.946Z,6.63
2023-03-02T10:30:59.460Z,5.78
2023-03-02T10:33:25.981Z,6.85
2023-03-02T10:35:52.592Z,6.35
2023-03-02T10:38:19.137Z,6.25
2023-03-02T10:40:45.635Z,6.13
2023-03-02T10:43:12.121Z,6.00
2023-03-02T10:45:38.649Z,6.50
2023-03-02T10:48:05.190Z,5.78
2023-03-02T10:50:31.736Z,5.32
2023-03-02T10:53:01.089Z,5.78
2023-03-02T10:55:28.511Z,6.20
2023-03-02T10:57:55.013Z,5.82
2023-03-02T11:00:21.493Z,6.13
2023-03-02T11:02:48.040Z,6.43
2023-03-02T11:05:14.559Z,5.85
2023-03-02T11:07:41.036Z,5.72
2023-03-02T11:10:07.628Z,6.00
2023-03-02T11:12:34.200Z,5.75
2023-03-02T11:15:00.661Z,5.45
2023-03-02T11:17:27.126Z,6.53
2023-03-02T11:19:53.642Z,6.25
2023-03-02T11:22:20.164Z,6.47
2023-03-02T11:24:46.679Z,6.00
2023-03-02T11:27:13.194Z,5.20
2023-03-02T11:29:39.708Z,5.90
2023-03-02T11:32:06.268Z,6.07
2023-03-02T11:34:32.836Z,6.00
2023-03-02T11:36:59.339Z,6.40
2023-03-02T11:39:25.847Z,5.25
2023-03-02T11:41:52.379Z,6.07
2023-03-02T11:44:18.907Z,5.57
2023-03-02T11:46:45.448Z,5.13
2023-03-02T11:49:12.005Z,5.95
2023-03-02T11:51:44.451Z,5.63
2023-03-02T11:54:13.783Z,5.88
2023-03-02T11:56:40.257Z,6.03
2023-03-02T11:59:06.724Z,5.95
2023-03-02T12:01:33.631Z,5.78
2023-03-02T12:04:00.495Z,5.95
2023-03-02T12:06:26.967Z,6.28
2023-03-02T12:08:53.533Z,6.25
2023-03-02T12:11:20.094Z,5.47
2023-03-02T12:13:46.586Z,5.88
2023-03-02T12:16:13.069Z,5.93
2023-03-02T12:18:39.537Z,5.60
2023-03-02T12:21:06.086Z,5.97
2023-03-02T12:23:32.607Z,5.93
2023-03-02T12:25:59.108Z,6.55
2023-03-02T12:28:25.663Z,5.15
2023-03-02T12:30:52.185Z,5.85
2023-03-02T12:33:18.677Z,6.28
2023-03-02T12:35:45.223Z,6.38
2023-03-02T12:38:11.875Z,6.32
2023-03-02T12:40:38.390Z,6.07
2023-03-02T12:43:04.894Z,5.45
2023-03-02T12:45:31.462Z,6.20
2023-03-02T12:47:58.138Z,6.13
2023-03-02T12:50:24.668Z,5.80
2023-03-02T12:52:51.262Z,5.85
2023-03-02T12:55:17.778Z,6.47
2023-03-02T12:57:44.295Z,6.32
2023-03-02T13:00:10.821Z,5.28
2023-03-02T13:02:37.344Z,6.38
2023-03-02T13:05:03.867Z,6.20
2023-03-02T13:07:30.352Z,5.65
2023-03-02T13:09:57.303Z,5.70
2023-03-02T13:12:23.934Z,5.80
2023-03-02T13:14:50.437Z,5.70
2023-03-02T13:17:16.937Z,4.97
2023-03-02T13:19:43.449Z,6.38
2023-03-02T13:22:09.914Z,6.43
2023-03-02T13:24:36.418Z,5.40
2023-03-02T13:27:02.889Z,5.60
2023-03-02T13:29:29.381Z,5.78
2023-03-02T13:31:55.968Z,5.88
2023-03-02T13:34:22.561Z,5.97
2023-03-02T13:36:49.067Z,5.63
2023-03-02T13:39:15.594Z,5.93
2023-03-02T13:41:42.111Z,5.93
2023-03-02T13:44:08.628Z,5.85
2023-03-02T13:46:35.709Z,5.43
2023-03-02T13:49:11.579Z,5.90
2023-03-02T13:51:38.270Z,4.85
2023-03-02T13:54:04.775Z,5.35
2023-03-02T13:56:31.558Z,6.13
2023-03-02T13:58:58.227Z,5.13
2023-03-02T14:01:24.723Z,5.55
2023-03-02T14:03:51.205Z,5.50
2023-03-02T14:06:17.671Z,5.18
2023-03-02T14:08:44.205Z,5.43
2023-03-02T14:11:10.684Z,5.50
2023-03-02T14:13:37.191Z,5.65
2023-03-02T14:16:03.731Z,5.13
2023-03-02T14:18:30.296Z,5.40
2023-03-02T14:20:56.820Z,5.75
2023-03-02T14:23:23.411Z,5.60
2023-03-02T14:25:49.921Z,5.40
2023-03-02T14:28:16.875Z,5.63
2023-03-02T14:30:44.147Z,6.07
2023-03-02T14:33:10.676Z,4.82
2023-03-02T14:35:37.225Z,4.95
2023-03-02T14:38:03.732Z,5.03
2023-03-02T14:40:30.228Z,5.85
2023-03-02T14:42:56.718Z,5.25
2023-03-02T14:45:23.316Z,5.60
2023-03-02T14:47:49.827Z,5.25
2023-03-02T14:50:16.367Z,5.70
2023-03-02T14:52:42.873Z,5.82
2023-03-02T14:55:09.377Z,5.80
2023-03-02T14:57:35.930Z,6.15
2023-03-02T15:00:02.442Z,5.80
2023-03-02T15:02:29.012Z,5.45
2023-03-02T15:04:56.605Z,5.55
2023-03-02T15:07:23.282Z,5.00
2023-03-02T15:09:49.773Z,5.45
2023-03-02T15:12:16.278Z,6.00
2023-03-02T15:14:42.812Z,5.22
2023-03-02T15:17:09.302Z,5.70
2023-03-02T15:19:35.793Z,5.47
2023-03-02T15:22:02.300Z,6.00
2023-03-02T15:24:30.263Z,5.35
2023-03-02T15:26:58.493Z,5.65
2023-03-02T15:29:25.010Z,6.03
2023-03-02T15:31:51.576Z,5.20
2023-03-02T15:34:18.102Z,5.28
2023-03-02T15:36:44.639Z,5.95
2023-03-02T15:39:11.174Z,6.55
2023-03-02T15:41:37.644Z,5.32
2023-03-02T15:44:04.158Z,5.72
2023-03-02T15:46:30.728Z,5.05
2023-03-02T15:48:57.229Z,5.78
2023-03-02T15:51:23.758Z,5.30
2023-03-02T15:53:50.752Z,5.55
2023-03-02T15:56:17.228Z,6.33
2023-03-02T15:58:43.737Z,6.03
2023-03-02T16:01:10.259Z,5.63
2023-03-02T16:03:36.828Z,4.93
2023-03-02T16:06:03.370Z,6.05
2023-03-02T16:08:29.870Z,5.50
2023-03-02T16:10:56.454Z,5.65
2023-03-02T16:13:22.977Z,5.85
2023-03-02T16:15:49.509Z,5.50
2023-03-02T16:18:15.980Z,6.03
2023-03-02T16:20:42.489Z,5.70
2023-03-02T16:23:09.008Z,5.80
2023-03-02T16:25:35.556Z,6.00
2023-03-02T16:28:02.068Z,5.70
2023-03-02T16:30:28.583Z,5.38
2023-03-02T16:32:55.055Z,6.50
2023-03-02T16:35:21.579Z,5.28
2023-03-02T16:37:48.162Z,5.05
2023-03-02T16:40:14.694Z,5.40
2023-03-02T16:42:41.251Z,5.55
2023-03-02T16:45:07.798Z,6.45
2023-03-02T16:47:34.289Z,5.78
2023-03-02T16:50:00.738Z,5.78
2023-03-02T16:52:27.235Z,6.15
2023-03-02T16:54:53.771Z,5.00
2023-03-02T16:57:20.264Z,6.35
2023-03-02T16:59:46.750Z,6.22
2023-03-02T17:02:13.214Z,6.22
2023-03-02T17:04:39.753Z,5.70
2023-03-02T17:07:06.240Z,6.25
2023-03-02T17:09:32.732Z,6.22
2023-03-02T17:11:59.253Z,5.60
2023-03-02T17:14:25.804Z,6.05
2023-03-02T17:16:52.300Z,6.10
2023-03-02T17:19:18.841Z,6.60
2023-03-02T17:21:45.346Z,6.80
2023-03-02T17:24:11.831Z,6.25
2023-03-02T17:26:38.345Z,6.20
2023-03-02T17:29:04.828Z,6.40
2023-03-02T17:31:31.391Z,6.50
2023-03-02T17:33:57.947Z,5.63
2023-03-02T17:36:24.466Z,6.95
2023-03-02T17:38:50.939Z,6.22
2023-03-02T17:41:17.405Z,5.57
2023-03-02T17:43:43.868Z,5.85
2023-03-02T17:46:10.407Z,6.38
2023-03-02T17:48:37.019Z,6.80
2023-03-02T17:51:03.521Z,6.63
2023-03-02T17:53:30.056Z,6.65
2023-03-02T17:55:56.543Z,6.28
2023-03-02T17:58:23.339Z,5.90
2023-03-02T18:00:49.906Z,6.30
2023-03-02T18:03:16.438Z,6.90
2023-03-02T18:05:42.982Z,7.47
2023-03-02T18:08:09.465Z,6.45
2023-03-02T18:10:35.992Z,6.60
2023-03-02T18:13:02.492Z,6.28
2023-03-02T18:15:28.988Z,6.53
2023-03-02T18:17:55.522Z,6.68
2023-03-02T18:20:22.010Z,7.35
2023-03-02T18:22:48.523Z,6.22
2023-03-02T18:25:15.020Z,7.40
2023-03-02T18:27:41.548Z,7.22
2023-03-02T18:30:08.143Z,6.65
2023-03-02T18:32:34.729Z,6.82
2023-03-02T18:35:01.250Z,6.97
2023-03-02T18:37:27.779Z,6.78
2023-03-02T18:39:54.258Z,7.10
2023-03-02T18:42:20.742Z,6.53
2023-03-02T18:44:47.249Z,6.85
2023-03-02T18:47:13.729Z,7.10
2023-03-02T18:49:40.201Z,7.38
2023-03-02T18:52:06.668Z,6.47
2023-03-02T18:54:33.178Z,6.80
2023-03-02T18:56:59.652Z,6.90
2023-03-02T18:59:26.133Z,7.07
2023-03-02T19:01:52.616Z,6.97
2023-03-02T19:04:19.105Z,7.50
2023-03-02T19:06:45.614Z,7.20
2023-03-02T19:09:12.066Z,7.20
2023-03-02T19:11:38.565Z,6.93
2023-03-02T19:14:05.050Z,6.40
2023-03-02T19:16:31.572Z,6.38
2023-03-02T19:18:58.055Z,6.57
2023-03-02T19:21:24.541Z,7.22
2023-03-02T19:23:51.021Z,7.20
2023-03-02T19:26:17.526Z,6.50
2023-03-02T19:28:44.025Z,6.72
2023-03-02T19:31:10.566Z,7.28
2023-03-02T19:33:37.110Z,7.22
2023-03-02T19:36:03.599Z,7.40
2023-03-02T19:38:30.059Z,6.53
2023-03-02T19:40:56.577Z,6.68
2023-03-02T19:43:23.041Z,6.32
2023-03-02T19:45:50.114Z,6.55
2023-03-02T19:48:16.589Z,7.07
2023-03-02T19:50:43.053Z,6.95
2023-03-02T19:53:09.549Z,7.13
2023-03-02T19:55:36.026Z,6.97
2023-03-02T19:58:02.622Z,6.28
2023-03-02T20:00:30.326Z,7.85
2023-03-02T20:02:56.829Z,6.85
2023-03-02T20:05:23.368Z,6.30
2023-03-02T20:07:49.851Z,6.70
2023-03-02T20:10:16.355Z,7.63
2023-03-02T20:12:42.848Z,6.85
2023-03-02T20:15:09.325Z,6.25
2023-03-02T20:17:35.846Z,6.65
2023-03-02T20:20:02.406Z,6.72
2023-03-02T20:22:28.924Z,6.68
2023-03-02T20:24:55.424Z,6.82
2023-03-02T20:27:21.933Z,6.43
2023-03-02T20:29:48.511Z,6.78
2023-03-02T20:32:15.066Z,6.35
2023-03-02T20:34:41.604Z,7.13
2023-03-02T20:37:08.132Z,7.35
2023-03-02T20:39:34.628Z,7.07
2023-03-02T20:42:01.133Z,6.93
2023-03-02T20:44:27.616Z,8.25
2023-03-02T20:46:54.132Z,6.53
2023-03-02T20:49:20.603Z,7.25
2023-03-02T20:51:47.106Z,7.32
2023-03-02T20:54:13.591Z,7.25
2023-03-02T20:56:40.201Z,7.22
2023-03-02T20:59:06.724Z,7.32
2023-03-02T21:01:33.277Z,6.47
2023-03-02T21:03:59.821Z,7.05
2023-03-02T21:06:26.336Z,6.65
2023-03-02T21:08:52.963Z,6.78
2023-03-02T21:11:19.468Z,6.65
2023-03-02T21:13:46.050Z,7.53
2023-03-02T21:16:12.561Z,6.68
2023-03-02T21:18:39.073Z,7.45
2023-03-02T21:21:05.547Z,7.20
2023-03-02T21:23:32.062Z,6.72
2023-03-02T21:25:58.577Z,7.28
2023-03-02T21:28:25.233Z,7.45
2023-03-02T21:30:51.736Z,7.30
2023-03-02T21:33:18.245Z,7.28
2023-03-02T21:35:44.747Z,7.63
2023-03-02T21:38:11.227Z,7.65
2023-03-02T21:40:37.760Z,7.38
2023-03-02T21:43:04.294Z,6.78
2023-03-02T21:45:30.772Z,6.80
2023-03-02T21:47:57.296Z,7.40
2023-03-02T21:50:23.864Z,7.38
2023-03-02T21:52:50.427Z,7.15
2023-03-02T21:55:17.086Z,7.50
2023-03-02T21:57:43.679Z,7.47
2023-03-02T22:00:10.162Z,7.30
2023-03-02T22:02:36.620Z,7.05
2023-03-02T22:05:03.099Z,7.10
2023-03-02T22:07:29.606Z,6.47
2023-03-02T22:09:56.189Z,7.05
2023-03-02T22:12:22.745Z,6.43
2023-03-02T22:14:49.281Z,7.68
2023-03-02T22:17:15.799Z,7.13
2023-03-02T22:19:42.289Z,6.97
2023-03-02T22:22:09.172Z,6.80
2023-03-02T22:24:35.663Z,7.40
2023-03-02T22:27:02.223Z,7.50
2023-03-02T22:29:28.739Z,7.82
2023-03-02T22:31:55.288Z,7.15
2023-03-02T22:34:21.928Z,7.43
2023-03-02T22:36:48.523Z,7.60
2023-03-02T22:39:15.068Z,7.63
2023-03-02T22:41:41.656Z,7.05
2023-03-02T22:44:08.139Z,6.93
2023-03-02T22:46:34.840Z,7.40
2023-03-02T22:49:01.483Z,7.78
2023-03-02T22:51:27.991Z,6.63
2023-03-02T22:53:54.478Z,6.72
2023-03-02T22:56:21.202Z,6.70
2023-03-02T22:58:47.882Z,6.97
2023-03-02T23:01:14.429Z,6.75
2023-03-02T23:03:40.935Z,6.93
2023-03-02T23:06:07.472Z,7.10
2023-03-02T23:08:33.979Z,7.03
2023-03-02T23:11:00.462Z,7.55
2023-03-02T23:13:27.494Z,7.32
2023-03-02T23:15:54.116Z,6.93
2023-03-02T23:18:20.726Z,7.93
2023-03-02T23:20:47.243Z,6.70
2023-03-02T23:23:13.717Z,7.50
2023-03-02T23:25:40.201Z,7.75
2023-03-02T23:28:06.671Z,8.13
2023-03-02T23:30:33.191Z,6.78
2023-03-02T23:32:59.757Z,7.72
2023-03-02T23:35:26.288Z,7.90
2023-03-02T23:37:52.832Z,7.50
2023-03-02T23:40:19.314Z,7.55
2023-03-02T23:42:45.832Z,7.55
2023-03-02T23:45:12.401Z,6.72
2023-03-02T23:47:38.888Z,7.40
2023-03-02T23:50:05.469Z,7.32
2023-03-02T23:52:31.968Z,8.00
2023-03-02T23:54:58.502Z,6.72
2023-03-02T23:57:24.972Z,7.00
2023-03-02T23:59:51.468Z,7.47
